Tuskahoma, OK (74574)

7:45 AM CDT on September 20, 2014 (GMT -0500)
RAWS KIAMICHI OK US | Change Station
CLOSE
Current Station
Personal Weather Station
Location: Talihina, OK
Elevation: 680 ft
Nearby Weather Stations

Elev 680 ft 34.76 °N, 94.98 °W | Updated 46 minutes ago

Mostly Cloudy
Mostly Cloudy
65 °F
Feels Like 65 °F
N
0
Wind Variable Wind from North
Gusts 0.0 mph

Today
High -- | Low -- °F
--% Chance of Precip.
Yesterday
High -- | Low -- °F
Precip. -- in
7:07 AM 7:20 PM
Waning Crescent, 12% visible
Pressure 29.99 in
Visibility 8.0 miles
Clouds Few 4100 ft
Mostly Cloudy 7000 ft
Dew Point 64 °F
Humidity 97%
Rainfall 0.00 in
Snow Depth Not available.
UV 0 out of 12
Pollen 10.10 out of 12
Air Quality Not available.
Flu Activity Not available.
METAR KMLC 201153Z AUTO 00000KT 8SM FEW041 BKN070 22/21 A3001 RMK AO2 SLP153 T02170206 10222 20206 53004

More Conditions Fewer Conditions

Pressure 29.99 in
Visibility 8.0 miles
Clouds Few 4100 ft
Mostly Cloudy 7000 ft
Dew Point 64 °F
Humidity 97%
Rainfall 0.00 in
Snow Depth Not available.
UV 0 out of 12
Pollen 10.10 out of 12
Air Quality Not available.
Flu Activity Not available.
METAR KMLC 201153Z AUTO 00000KT 8SM FEW041 BKN070 22/21 A3001 RMK AO2 SLP153 T02170206 10222 20206 53004

More Conditions Fewer Conditions

10-Day Weather Forecast

Almanac

Astronomy

Sep. 20, 2014 Rise Set
Actual Time 7:07 AM CDT 7:20 PM CDT
Civil Twilight 6:42 AM CDT 7:45 PM CDT
Nautical Twilight 6:12 AM CDT 8:15 PM CDT
Astronomical Twilight 5:43 AM CDT 8:45 PM CDT
Moon 3:54 AM CDT 5:19 PM CDT
Length of Visible Light 13h 03m
Length of Day
12h 13m
Tomorrow will be 2m 10s shorter.
Waning Crescent, 12% of the Moon is Illuminated
Today
Waning Crescent
Sep 24
New
Oct 1
First Quarter
Oct 8
Full
Oct 15
Last Quarter

Today's Extremes

State Highs State Lows

Community

WunderPhotos

Upload Photos

1,754,837 photos uploaded!

Nearby

Snow Depth

Station Depth Elevation
No new snow has been reported.

Earthquake Activity

City Distance Mag. Time & Date
Luther, Oklahoma 122 miles 2.7 4:47 PM CDT
2014-09-19
Perry, Oklahoma 150 miles 3.3 12:08 AM CDT
2014-09-19
Perry, Oklahoma 154 miles 3.4 2:52 PM CDT
2014-09-18
Perry, Oklahoma 150 miles 2.5 2:57 PM CDT
2014-09-17
Minimum magnitude displayed is 2.5.

Coastal Water Temperatures

Place Temperature
No Stations Reporting

Nearby Weather Stations